메인 페이지
METAR-TAF:

METAR-TAF

공항 :

바레인 국제공항

바레인, 바레인

위도: 26-16N, 경도: 050-39E, 고도: 2m

현재 날씨관측

예보는 17분 전, 09:30시(UTC)에 발표되었습니다.
5kt동남동풍과 풍을 오가는
온도 36°C
습도 35%
기압 1013 hPa
시정 10km 이상
1500m 미만 상공 구름 및 적란운 없음

METAR: OBBI 150930Z 19005KT 120V270 CAVOK 36/18 Q1013 NOSIG

시각: 12:47 (09:47 UTC)

예보

예보는 4 시간 47분 전, 05:00시(UTC)에 발표되었습니다.
예보 대상 시간: 15일 06시부터 16일 12시까지 (UTC)
남남동10kt
시정: 8000m
고도 3000ft 상공 구름 조금
전환 중
15일 09시부터 15일 11시까지 (UTC)
동북동10kt
전환 중
15일 18시부터 15일 20시까지 (UTC)
8kt

TAF: OBBI 150500Z 1506/1612 16010KT 8000 FEW030 BECMG 1509/1511 06010KT BECMG 1518/1520 18008KT

4,000개 이상의 공항 관측 자료 및 예보 (METAR 및 TAF 보고).

지도상에서 검색 가능한 기상관측소가 노란 점과 빨간 점으로 표시되어 있습니다.

기상관측소 명을 보려면 표시 위로 마우스를 이동하세요.

날씨 관측과 예보를 보려면 클릭하세요.

지도 변경 : 확대하려면 엑스 표시가 있는 녹색 버튼, 축소하려면 빼기 표시가 있는 녹색 버튼, 다음 페이지의 지도를 보려면 녹색 화살표를 클릭하세요.


METAR-TAF: